Terminal Aerodrome Forecast
Issued by NWS Blacksburg, VA

Current Version | Previous Version | Text Only | Print | Product List | Glossary On
Versions: 1 2 3 4 5 6 7 8 9 10 11 12 13 14 15 16 17 18 19 20 21 22 23
313
FTUS41 KRNK 230541
TAFBLF
TAF
KBLF 230541Z 2306/2406 13014G27KT P6SM BKN150
     FM230900 13010G22KT P6SM BKN100
     FM231700 12015G24KT 5SM -RA OVC025
     FM232300 12018G27KT 5SM -RA BKN010=

USA.gov is the U.S. government's official web portal to all federal, state and local government web resources and services.